Location:  
MeteoStar


Sort by weather type Sort by elevation Sort by visibility Sort from west to east north Sort from north to south Alphabetically Sort from strongest wind speed Sort from lowest to highest pressure Sort from highest to lowest dew point temperature Sort coolest temperatures to warmest Sort warm temperatures to coolest
 Metric

Current Observations for Iran, Islamic Republic of

Abadan08:00ZNot Avail.97 371009.1NW 6 929
Abadeh08:00ZNot Avail.81 94N 4 786574
Ahwaz08:00ZNot Avail.100 551008.1WNW 4 9865
Bandar Lengeh08:00ZNot Avail.90 7741002.1SE 10 10245
Bandarabbass08:00ZNot Avail.95 7741007.9SW 12 10932
Birjand08:00ZNot Avail.91 041013.1W 6 884891
Bojnourd08:00ZClear82 5541013.2WNW 6 823523
Bushehr Civ / Afb 08:00ZClear88 631009.2WNW 10 8862
Chahbahar08:00ZNot Avail.95 7541006.9ESE 12 10719
Esfahan08:00ZNot Avail.84 214S 4 815216
Fasa08:00ZNot Avail.91 1841009.8SSE 8 874537
Gach Saran Du Gunbadan08:00ZNot Avail.95 181011.0CALM902421
Ghazvin07:53ZNot Avail.77 3441014.3SSE 4 774192
Gorgan08:00ZNot Avail.88 5941009.9S 8 87508
Iranshahr08:00ZNot Avail.102 5741007.4SSW 4 1011938
Jask08:00ZNot Avail.90 8441006.1SE 14 1159
Kashan08:00ZNot Avail.90 2741010.9N 6 863221
Kerman08:00ZClear90 54N 4 865734
Kermanshah08:00ZNot Avail.75 2341016.4W 4 754330
Mashhad08:00ZNot Avail.82 5241014.2SE 8 813244
Masjed-Soleyman08:00ZNot Avail.97 271008.0S 4 921220
Omidieh08:00ZNot Avail.100 391009.0NNE 6 9695
Orumieh08:00ZClear75 3441012.8SSW 8 754255
Ramsar08:00ZNot Avail.72 6641008.1E 10 72-75
Rasht08:00ZNot Avail.79 6841008.1E 4 79-22
Sabzevar08:00ZClear91 4341011.7W 6 873087
Sanandaj08:00ZNot Avail.75 2341015.3S 8 754504
Semnan08:00ZNot Avail.86 2141012.0S 4 833841
Shahre-Kord08:00ZNot Avail.77 194SSE 4 776817
Shiraz08:00ZNot Avail.86 1641013.8ESE 4 834875
Tabriz08:00ZPartly Cloudy72 3441014.0W 10 724484
Tehran-Mehrabad08:00ZNot Avail.86 341012.3WSW 10 833950
Yazd08:00ZPartly Cloudy91 1441012.4S 2 874061
Zabol08:00ZNot Avail.97 5041008.3NNW 16 941604
Zahedan08:00ZClear93 3741010.8N 10 894494
Zanjan08:00ZNot Avail.70 284S 10 705456

Atlantic
Tropical Watch